Agency, Missouri
Current Conditions -  °F | °C
As of 11:06 AM on Thursday 23 Oct 2014 (Local Time) from KSTJ Reporting Station
Overcast Overcast  
Wind Chill: 63°   Ceiling: 1600
Heat Index: 63°   Visibility: 10mi
Dew Point: 60°   Wind: 5mph
Humidity: 90%   Direction: 210°SSW
Pressure: 30.09"   Gusts: NA
Location:  39.64°N, 94.74°W
Report Text: KSTJ 231606Z 21004KT 10SM BKN016 BKN026 OVC032 17/16 A3009 RMK AO2 T01720156
Loading
Personal Weather Stations






























Interactive Weather Map
Tropical Storm Tracking
New forecast layout! Learn more

10-Day Weather Forecast

Advertisements
Track Severe Weather on mobile